Brigg, United Kingdom
Current Conditions -  °F | °C
As of 6:50 AM on Monday 22 Dec 2014 (Local Time) from EGNJ Reporting Station
Broken Clouds Broken Clouds  
Wind Chill: 55°   Ceiling: 2800
Heat Index: 55°   Visibility: 6mi
Dew Point: 48°   Wind: 29mph
Humidity: 77%   Direction: 220°SW
Pressure: 29.77"   Gusts: NA
Location:  53.55°N, 0.49°W
Report Text: EGNJ 220650Z 22025KT 9999 BKN028 13/09 Q1008
Loading
Personal Weather Stations






























Interactive Weather Map New forecast layout! Learn more

10-Day Weather Forecast

Advertisements
Track Severe Weather on mobile